Terminal Aerodrome Forecast
Issued by NWS Paducah, KY

Home | Current Version | Previous Version | Text Only | Print | Product List | Glossary On
Versions: 1 2 3 4 5 6 7 8 9 10 11 12 13 14 15 16 17
000
FTUS43 KPAH 232007 AAA
TAFPAH
TAF AMD
KPAH 232007Z 2320/2418 04015G25KT P6SM FEW050 SCT200
     FM232300 02010KT P6SM FEW070
     FM240300 01005KT P6SM SKC=

USA.gov is the U.S. government's official web portal to all federal, state and local government web resources and services.